sensor_id;sensor_type;location;lat;lon;timestamp;P1;durP1;ratioP1;P2;durP2;ratioP2
34234;SDS011;20500;49.856;20.290;2023-11-22T00:01:39;14.70;;;9.40;;
34234;SDS011;20500;49.856;20.290;2023-11-22T00:04:45;16.30;;;10.00;;
34234;SDS011;20500;49.856;20.290;2023-11-22T00:07:51;11.50;;;6.50;;
34234;SDS011;20500;49.856;20.290;2023-11-22T00:10:56;16.20;;;9.80;;
34234;SDS011;20500;49.856;20.290;2023-11-22T00:14:03;16.10;;;10.10;;
34234;SDS011;20500;49.856;20.290;2023-11-22T00:17:10;16.30;;;10.20;;
34234;SDS011;20500;49.856;20.290;2023-11-22T00:20:16;16.10;;;10.90;;
34234;SDS011;20500;49.856;20.290;2023-11-22T00:23:24;17.50;;;10.40;;
34234;SDS011;20500;49.856;20.290;2023-11-22T00:26:32;16.80;;;10.50;;
34234;SDS011;20500;49.856;20.290;2023-11-22T00:29:38;16.40;;;10.50;;
34234;SDS011;20500;49.856;20.290;2023-11-22T00:32:44;16.50;;;11.30;;
34234;SDS011;20500;49.856;20.290;2023-11-22T00:35:50;16.20;;;10.00;;
34234;SDS011;20500;49.856;20.290;2023-11-22T00:42:00;17.20;;;10.80;;
34234;SDS011;20500;49.856;20.290;2023-11-22T00:45:08;20.30;;;12.50;;
34234;SDS011;20500;49.856;20.290;2023-11-22T00:48:14;20.80;;;13.50;;
34234;SDS011;20500;49.856;20.290;2023-11-22T00:51:20;18.40;;;12.40;;
34234;SDS011;20500;49.856;20.290;2023-11-22T00:54:25;19.40;;;12.20;;
34234;SDS011;20500;49.856;20.290;2023-11-22T00:57:31;17.10;;;10.90;;
34234;SDS011;20500;49.856;20.290;2023-11-22T01:00:37;20.00;;;12.40;;
34234;SDS011;20500;49.856;20.290;2023-11-22T01:03:42;19.50;;;13.20;;
34234;SDS011;20500;49.856;20.290;2023-11-22T01:06:49;21.00;;;13.00;;
34234;SDS011;20500;49.856;20.290;2023-11-22T01:09:55;20.60;;;13.10;;
34234;SDS011;20500;49.856;20.290;2023-11-22T01:13:01;18.20;;;13.00;;
34234;SDS011;20500;49.856;20.290;2023-11-22T01:16:07;19.80;;;13.50;;
34234;SDS011;20500;49.856;20.290;2023-11-22T01:22:17;21.00;;;13.90;;
34234;SDS011;20500;49.856;20.290;2023-11-22T01:25:23;21.70;;;14.10;;
34234;SDS011;20500;49.856;20.290;2023-11-22T01:28:31;22.20;;;14.80;;
34234;SDS011;20500;49.856;20.290;2023-11-22T01:31:37;24.10;;;15.60;;
34234;SDS011;20500;49.856;20.290;2023-11-22T01:34:45;22.90;;;15.00;;
34234;SDS011;20500;49.856;20.290;2023-11-22T01:37:50;23.30;;;16.10;;
34234;SDS011;20500;49.856;20.290;2023-11-22T01:40:56;22.40;;;15.70;;
34234;SDS011;20500;49.856;20.290;2023-11-22T01:44:04;23.70;;;15.90;;
34234;SDS011;20500;49.856;20.290;2023-11-22T01:47:10;22.90;;;15.50;;
34234;SDS011;20500;49.856;20.290;2023-11-22T01:50:16;23.60;;;16.20;;
34234;SDS011;20500;49.856;20.290;2023-11-22T01:53:22;22.30;;;15.90;;
34234;SDS011;20500;49.856;20.290;2023-11-22T01:56:29;22.40;;;14.70;;
34234;SDS011;20500;49.856;20.290;2023-11-22T01:59:36;23.90;;;16.20;;
34234;SDS011;20500;49.856;20.290;2023-11-22T02:02:43;21.50;;;15.60;;
34234;SDS011;20500;49.856;20.290;2023-11-22T02:05:49;23.60;;;15.90;;
34234;SDS011;20500;49.856;20.290;2023-11-22T02:08:57;22.70;;;15.50;;
34234;SDS011;20500;49.856;20.290;2023-11-22T02:12:04;22.70;;;15.60;;
34234;SDS011;20500;49.856;20.290;2023-11-22T02:15:11;22.80;;;15.40;;
34234;SDS011;20500;49.856;20.290;2023-11-22T02:18:17;21.00;;;13.60;;
34234;SDS011;20500;49.856;20.290;2023-11-22T02:21:22;20.00;;;13.60;;
34234;SDS011;20500;49.856;20.290;2023-11-22T02:24:28;20.20;;;13.10;;
34234;SDS011;20500;49.856;20.290;2023-11-22T02:27:35;21.40;;;13.60;;
34234;SDS011;20500;49.856;20.290;2023-11-22T02:33:46;24.50;;;14.70;;
34234;SDS011;20500;49.856;20.290;2023-11-22T02:36:52;21.70;;;14.60;;
34234;SDS011;20500;49.856;20.290;2023-11-22T02:40:08;20.20;;;13.30;;
34234;SDS011;20500;49.856;20.290;2023-11-22T02:43:20;21.80;;;14.60;;
34234;SDS011;20500;49.856;20.290;2023-11-22T02:49:32;20.30;;;13.70;;
34234;SDS011;20500;49.856;20.290;2023-11-22T02:52:37;22.10;;;14.30;;
34234;SDS011;20500;49.856;20.290;2023-11-22T02:55:43;20.10;;;13.70;;
34234;SDS011;20500;49.856;20.290;2023-11-22T02:58:49;20.10;;;12.60;;
34234;SDS011;20500;49.856;20.290;2023-11-22T03:01:55;22.40;;;13.90;;
34234;SDS011;20500;49.856;20.290;2023-11-22T03:05:01;21.40;;;14.10;;
34234;SDS011;20500;49.856;20.290;2023-11-22T03:08:08;20.10;;;13.40;;
34234;SDS011;20500;49.856;20.290;2023-11-22T03:11:16;20.00;;;12.70;;
34234;SDS011;20500;49.856;20.290;2023-11-22T03:14:22;21.10;;;14.10;;
34234;SDS011;20500;49.856;20.290;2023-11-22T03:17:28;21.20;;;14.10;;
34234;SDS011;20500;49.856;20.290;2023-11-22T03:20:36;21.70;;;13.70;;
34234;SDS011;20500;49.856;20.290;2023-11-22T03:23:42;21.30;;;14.10;;
34234;SDS011;20500;49.856;20.290;2023-11-22T03:26:47;21.80;;;14.20;;
34234;SDS011;20500;49.856;20.290;2023-11-22T03:29:53;20.90;;;13.20;;
34234;SDS011;20500;49.856;20.290;2023-11-22T03:32:58;20.40;;;13.80;;
34234;SDS011;20500;49.856;20.290;2023-11-22T03:36:05;21.20;;;14.20;;
34234;SDS011;20500;49.856;20.290;2023-11-22T03:39:14;19.90;;;12.80;;
34234;SDS011;20500;49.856;20.290;2023-11-22T03:42:19;20.80;;;14.30;;
34234;SDS011;20500;49.856;20.290;2023-11-22T03:45:25;21.10;;;13.60;;
34234;SDS011;20500;49.856;20.290;2023-11-22T03:48:31;22.20;;;14.60;;
34234;SDS011;20500;49.856;20.290;2023-11-22T03:51:38;21.40;;;14.60;;
34234;SDS011;20500;49.856;20.290;2023-11-22T03:54:47;23.40;;;14.80;;
34234;SDS011;20500;49.856;20.290;2023-11-22T03:57:55;22.00;;;14.20;;
34234;SDS011;20500;49.856;20.290;2023-11-22T04:01:01;20.50;;;13.50;;
34234;SDS011;20500;49.856;20.290;2023-11-22T04:04:07;20.90;;;14.30;;
34234;SDS011;20500;49.856;20.290;2023-11-22T04:07:13;20.30;;;13.80;;
34234;SDS011;20500;49.856;20.290;2023-11-22T04:10:18;22.70;;;14.90;;
34234;SDS011;20500;49.856;20.290;2023-11-22T04:16:32;24.00;;;16.10;;
34234;SDS011;20500;49.856;20.290;2023-11-22T04:22:43;23.70;;;15.40;;
34234;SDS011;20500;49.856;20.290;2023-11-22T04:25:49;23.10;;;16.20;;
34234;SDS011;20500;49.856;20.290;2023-11-22T04:28:54;23.10;;;16.10;;
34234;SDS011;20500;49.856;20.290;2023-11-22T04:32:01;25.20;;;17.10;;
34234;SDS011;20500;49.856;20.290;2023-11-22T04:35:08;23.90;;;16.60;;
34234;SDS011;20500;49.856;20.290;2023-11-22T04:38:14;24.70;;;16.60;;
34234;SDS011;20500;49.856;20.290;2023-11-22T04:41:21;25.60;;;17.90;;
34234;SDS011;20500;49.856;20.290;2023-11-22T04:44:28;25.80;;;17.50;;
34234;SDS011;20500;49.856;20.290;2023-11-22T04:47:34;25.00;;;17.20;;
34234;SDS011;20500;49.856;20.290;2023-11-22T04:50:41;25.50;;;17.00;;
34234;SDS011;20500;49.856;20.290;2023-11-22T04:53:46;26.40;;;17.40;;
34234;SDS011;20500;49.856;20.290;2023-11-22T04:56:52;25.70;;;16.90;;
34234;SDS011;20500;49.856;20.290;2023-11-22T04:59:58;27.40;;;18.80;;
34234;SDS011;20500;49.856;20.290;2023-11-22T05:03:06;26.40;;;18.30;;
34234;SDS011;20500;49.856;20.290;2023-11-22T05:06:12;28.60;;;18.70;;
34234;SDS011;20500;49.856;20.290;2023-11-22T05:09:17;25.50;;;16.80;;
34234;SDS011;20500;49.856;20.290;2023-11-22T05:12:23;27.50;;;19.00;;
34234;SDS011;20500;49.856;20.290;2023-11-22T05:15:29;27.70;;;18.50;;
34234;SDS011;20500;49.856;20.290;2023-11-22T05:18:35;27.60;;;17.40;;
34234;SDS011;20500;49.856;20.290;2023-11-22T05:21:41;27.00;;;17.10;;
34234;SDS011;20500;49.856;20.290;2023-11-22T05:25:05;29.00;;;18.80;;
34234;SDS011;20500;49.856;20.290;2023-11-22T05:28:11;27.40;;;18.50;;
34234;SDS011;20500;49.856;20.290;2023-11-22T05:31:17;28.80;;;18.50;;
34234;SDS011;20500;49.856;20.290;2023-11-22T05:34:23;26.90;;;18.30;;
34234;SDS011;20500;49.856;20.290;2023-11-22T05:37:30;25.10;;;16.50;;
34234;SDS011;20500;49.856;20.290;2023-11-22T05:40:35;25.40;;;17.10;;
34234;SDS011;20500;49.856;20.290;2023-11-22T05:46:46;26.80;;;17.50;;
34234;SDS011;20500;49.856;20.290;2023-11-22T05:49:51;27.90;;;17.60;;
34234;SDS011;20500;49.856;20.290;2023-11-22T05:52:57;28.90;;;19.10;;
34234;SDS011;20500;49.856;20.290;2023-11-22T05:56:03;29.50;;;19.10;;
34234;SDS011;20500;49.856;20.290;2023-11-22T05:59:11;27.80;;;18.10;;
34234;SDS011;20500;49.856;20.290;2023-11-22T06:02:17;27.20;;;18.40;;
34234;SDS011;20500;49.856;20.290;2023-11-22T06:05:23;31.10;;;18.80;;
34234;SDS011;20500;49.856;20.290;2023-11-22T06:08:29;31.60;;;19.50;;
34234;SDS011;20500;49.856;20.290;2023-11-22T06:11:34;29.20;;;20.50;;
34234;SDS011;20500;49.856;20.290;2023-11-22T06:14:40;33.30;;;22.80;;
34234;SDS011;20500;49.856;20.290;2023-11-22T06:17:46;31.60;;;19.70;;
34234;SDS011;20500;49.856;20.290;2023-11-22T06:20:52;30.20;;;20.10;;
34234;SDS011;20500;49.856;20.290;2023-11-22T06:23:58;30.20;;;19.10;;
34234;SDS011;20500;49.856;20.290;2023-11-22T06:27:06;32.30;;;20.20;;
34234;SDS011;20500;49.856;20.290;2023-11-22T06:30:12;27.50;;;17.50;;
34234;SDS011;20500;49.856;20.290;2023-11-22T06:33:18;28.70;;;18.80;;
34234;SDS011;20500;49.856;20.290;2023-11-22T06:36:24;27.50;;;18.20;;
34234;SDS011;20500;49.856;20.290;2023-11-22T06:39:30;27.30;;;18.30;;
34234;SDS011;20500;49.856;20.290;2023-11-22T06:42:36;28.60;;;19.30;;
34234;SDS011;20500;49.856;20.290;2023-11-22T06:45:42;28.40;;;18.30;;
34234;SDS011;20500;49.856;20.290;2023-11-22T06:48:48;25.70;;;16.80;;
34234;SDS011;20500;49.856;20.290;2023-11-22T06:51:54;27.60;;;19.30;;
34234;SDS011;20500;49.856;20.290;2023-11-22T06:55:00;25.80;;;17.30;;
34234;SDS011;20500;49.856;20.290;2023-11-22T06:58:07;25.80;;;18.20;;
34234;SDS011;20500;49.856;20.290;2023-11-22T07:01:13;24.50;;;15.90;;
34234;SDS011;20500;49.856;20.290;2023-11-22T07:04:20;25.80;;;16.40;;
34234;SDS011;20500;49.856;20.290;2023-11-22T07:10:30;24.80;;;15.50;;
34234;SDS011;20500;49.856;20.290;2023-11-22T07:13:37;24.40;;;15.50;;
34234;SDS011;20500;49.856;20.290;2023-11-22T07:16:43;24.10;;;15.10;;
34234;SDS011;20500;49.856;20.290;2023-11-22T07:19:49;24.20;;;14.80;;
34234;SDS011;20500;49.856;20.290;2023-11-22T07:22:55;25.70;;;14.40;;
34234;SDS011;20500;49.856;20.290;2023-11-22T07:26:01;23.70;;;13.80;;
34234;SDS011;20500;49.856;20.290;2023-11-22T07:29:09;25.40;;;14.80;;
34234;SDS011;20500;49.856;20.290;2023-11-22T07:32:15;24.00;;;14.60;;
34234;SDS011;20500;49.856;20.290;2023-11-22T07:35:23;26.50;;;16.20;;
34234;SDS011;20500;49.856;20.290;2023-11-22T07:38:31;26.00;;;16.20;;
34234;SDS011;20500;49.856;20.290;2023-11-22T07:41:38;27.30;;;17.00;;
34234;SDS011;20500;49.856;20.290;2023-11-22T07:47:49;26.40;;;15.50;;
34234;SDS011;20500;49.856;20.290;2023-11-22T07:50:56;28.90;;;16.40;;
34234;SDS011;20500;49.856;20.290;2023-11-22T07:54:02;28.90;;;19.40;;
34234;SDS011;20500;49.856;20.290;2023-11-22T08:00:13;28.80;;;17.40;;
34234;SDS011;20500;49.856;20.290;2023-11-22T08:03:22;32.70;;;19.50;;
34234;SDS011;20500;49.856;20.290;2023-11-22T08:09:32;28.20;;;17.40;;
34234;SDS011;20500;49.856;20.290;2023-11-22T08:12:38;29.80;;;18.10;;
34234;SDS011;20500;49.856;20.290;2023-11-22T08:15:44;29.90;;;17.70;;
34234;SDS011;20500;49.856;20.290;2023-11-22T08:18:50;31.10;;;18.30;;
34234;SDS011;20500;49.856;20.290;2023-11-22T08:21:55;32.50;;;18.50;;
34234;SDS011;20500;49.856;20.290;2023-11-22T08:25:01;28.90;;;17.40;;
34234;SDS011;20500;49.856;20.290;2023-11-22T08:28:08;31.50;;;18.70;;
34234;SDS011;20500;49.856;20.290;2023-11-22T08:31:13;26.40;;;16.50;;
34234;SDS011;20500;49.856;20.290;2023-11-22T08:34:20;27.50;;;16.60;;
34234;SDS011;20500;49.856;20.290;2023-11-22T08:37:26;31.60;;;18.30;;
34234;SDS011;20500;49.856;20.290;2023-11-22T08:40:31;29.20;;;18.00;;
34234;SDS011;20500;49.856;20.290;2023-11-22T08:43:39;28.40;;;16.40;;
34234;SDS011;20500;49.856;20.290;2023-11-22T08:46:45;23.70;;;14.70;;
34234;SDS011;20500;49.856;20.290;2023-11-22T08:49:52;24.30;;;15.60;;
34234;SDS011;20500;49.856;20.290;2023-11-22T08:52:57;27.70;;;16.50;;
34234;SDS011;20500;49.856;20.290;2023-11-22T08:56:04;28.70;;;18.10;;
34234;SDS011;20500;49.856;20.290;2023-11-22T08:59:13;28.90;;;16.70;;
34234;SDS011;20500;49.856;20.290;2023-11-22T09:02:19;27.80;;;17.40;;
34234;SDS011;20500;49.856;20.290;2023-11-22T09:05:26;28.10;;;16.90;;
34234;SDS011;20500;49.856;20.290;2023-11-22T09:11:38;26.60;;;16.10;;
34234;SDS011;20500;49.856;20.290;2023-11-22T09:14:44;28.90;;;17.30;;
34234;SDS011;20500;49.856;20.290;2023-11-22T09:17:50;28.50;;;18.10;;
34234;SDS011;20500;49.856;20.290;2023-11-22T09:20:56;29.80;;;17.90;;
34234;SDS011;20500;49.856;20.290;2023-11-22T09:24:02;27.80;;;16.70;;
34234;SDS011;20500;49.856;20.290;2023-11-22T09:27:09;28.20;;;17.40;;
34234;SDS011;20500;49.856;20.290;2023-11-22T09:30:20;27.20;;;16.60;;
34234;SDS011;20500;49.856;20.290;2023-11-22T09:33:37;30.00;;;17.80;;
34234;SDS011;20500;49.856;20.290;2023-11-22T09:36:44;28.60;;;17.60;;
34234;SDS011;20500;49.856;20.290;2023-11-22T09:39:49;27.40;;;16.50;;
34234;SDS011;20500;49.856;20.290;2023-11-22T09:42:55;26.20;;;15.30;;
34234;SDS011;20500;49.856;20.290;2023-11-22T09:46:01;26.00;;;15.40;;
34234;SDS011;20500;49.856;20.290;2023-11-22T09:49:13;27.30;;;15.20;;
34234;SDS011;20500;49.856;20.290;2023-11-22T09:52:25;21.80;;;13.70;;
34234;SDS011;20500;49.856;20.290;2023-11-22T09:55:34;24.80;;;14.40;;
34234;SDS011;20500;49.856;20.290;2023-11-22T09:58:41;22.00;;;13.30;;
34234;SDS011;20500;49.856;20.290;2023-11-22T10:01:47;23.00;;;13.60;;
34234;SDS011;20500;49.856;20.290;2023-11-22T10:04:55;28.20;;;15.90;;
34234;SDS011;20500;49.856;20.290;2023-11-22T10:08:01;23.90;;;14.60;;
34234;SDS011;20500;49.856;20.290;2023-11-22T10:14:11;31.40;;;17.80;;
34234;SDS011;20500;49.856;20.290;2023-11-22T10:17:29;26.00;;;15.80;;
34234;SDS011;20500;49.856;20.290;2023-11-22T10:20:37;28.20;;;16.80;;
34234;SDS011;20500;49.856;20.290;2023-11-22T10:23:45;24.40;;;14.40;;
34234;SDS011;20500;49.856;20.290;2023-11-22T10:26:52;26.30;;;14.80;;
34234;SDS011;20500;49.856;20.290;2023-11-22T10:30:01;22.20;;;14.50;;
34234;SDS011;20500;49.856;20.290;2023-11-22T10:33:07;26.10;;;15.30;;
34234;SDS011;20500;49.856;20.290;2023-11-22T10:36:17;25.20;;;15.10;;
34234;SDS011;20500;49.856;20.290;2023-11-22T10:39:23;24.90;;;15.30;;
34234;SDS011;20500;49.856;20.290;2023-11-22T10:42:30;25.90;;;14.50;;
34234;SDS011;20500;49.856;20.290;2023-11-22T10:45:37;25.10;;;14.90;;
34234;SDS011;20500;49.856;20.290;2023-11-22T10:48:48;25.20;;;15.00;;
34234;SDS011;20500;49.856;20.290;2023-11-22T10:51:54;29.10;;;16.20;;
34234;SDS011;20500;49.856;20.290;2023-11-22T10:55:01;23.30;;;14.10;;
34234;SDS011;20500;49.856;20.290;2023-11-22T10:58:08;23.00;;;14.20;;
34234;SDS011;20500;49.856;20.290;2023-11-22T11:01:18;24.60;;;14.60;;
34234;SDS011;20500;49.856;20.290;2023-11-22T11:04:27;26.20;;;15.30;;
34234;SDS011;20500;49.856;20.290;2023-11-22T11:07:39;25.80;;;14.40;;
34234;SDS011;20500;49.856;20.290;2023-11-22T11:10:49;24.20;;;15.00;;
34234;SDS011;20500;49.856;20.290;2023-11-22T11:13:59;23.20;;;14.00;;
34234;SDS011;20500;49.856;20.290;2023-11-22T11:17:06;25.10;;;14.90;;
34234;SDS011;20500;49.856;20.290;2023-11-22T11:20:12;22.60;;;14.30;;
34234;SDS011;20500;49.856;20.290;2023-11-22T11:23:23;24.40;;;14.90;;
34234;SDS011;20500;49.856;20.290;2023-11-22T11:26:32;24.70;;;15.30;;
34234;SDS011;20500;49.856;20.290;2023-11-22T11:29:38;25.40;;;15.10;;
34234;SDS011;20500;49.856;20.290;2023-11-22T11:32:46;25.60;;;16.20;;
34234;SDS011;20500;49.856;20.290;2023-11-22T11:35:56;26.00;;;15.10;;
34234;SDS011;20500;49.856;20.290;2023-11-22T11:39:05;29.40;;;17.10;;
34234;SDS011;20500;49.856;20.290;2023-11-22T11:42:17;26.90;;;16.50;;
34234;SDS011;20500;49.856;20.290;2023-11-22T11:45:25;24.40;;;14.30;;
34234;SDS011;20500;49.856;20.290;2023-11-22T11:48:34;27.50;;;16.40;;
34234;SDS011;20500;49.856;20.290;2023-11-22T11:51:39;24.10;;;14.50;;
34234;SDS011;20500;49.856;20.290;2023-11-22T11:54:46;29.50;;;15.80;;
34234;SDS011;20500;49.856;20.290;2023-11-22T12:00:58;27.70;;;15.40;;
34234;SDS011;20500;49.856;20.290;2023-11-22T12:04:05;26.00;;;15.00;;
34234;SDS011;20500;49.856;20.290;2023-11-22T12:10:16;24.90;;;14.00;;
34234;SDS011;20500;49.856;20.290;2023-11-22T12:13:21;25.30;;;14.80;;
34234;SDS011;20500;49.856;20.290;2023-11-22T12:16:27;22.60;;;13.40;;
34234;SDS011;20500;49.856;20.290;2023-11-22T12:19:33;23.10;;;13.30;;
34234;SDS011;20500;49.856;20.290;2023-11-22T12:22:39;22.50;;;12.50;;
34234;SDS011;20500;49.856;20.290;2023-11-22T12:28:49;23.80;;;13.60;;
34234;SDS011;20500;49.856;20.290;2023-11-22T12:32:07;21.40;;;12.20;;
34234;SDS011;20500;49.856;20.290;2023-11-22T12:35:14;21.80;;;12.90;;
34234;SDS011;20500;49.856;20.290;2023-11-22T12:38:21;21.10;;;12.70;;
34234;SDS011;20500;49.856;20.290;2023-11-22T12:41:32;20.30;;;11.90;;
34234;SDS011;20500;49.856;20.290;2023-11-22T12:44:48;20.90;;;12.40;;
34234;SDS011;20500;49.856;20.290;2023-11-22T12:47:55;23.40;;;13.60;;
34234;SDS011;20500;49.856;20.290;2023-11-22T12:51:14;24.40;;;13.70;;
34234;SDS011;20500;49.856;20.290;2023-11-22T12:54:21;25.50;;;14.20;;
34234;SDS011;20500;49.856;20.290;2023-11-22T12:57:27;24.90;;;13.80;;
34234;SDS011;20500;49.856;20.290;2023-11-22T13:00:32;24.50;;;14.00;;
34234;SDS011;20500;49.856;20.290;2023-11-22T13:03:38;26.70;;;15.10;;
34234;SDS011;20500;49.856;20.290;2023-11-22T13:06:44;23.20;;;13.70;;
34234;SDS011;20500;49.856;20.290;2023-11-22T13:09:50;24.50;;;13.10;;
34234;SDS011;20500;49.856;20.290;2023-11-22T13:12:56;23.30;;;13.40;;
34234;SDS011;20500;49.856;20.290;2023-11-22T13:16:05;22.80;;;13.30;;
34234;SDS011;20500;49.856;20.290;2023-11-22T13:19:11;21.50;;;12.00;;
34234;SDS011;20500;49.856;20.290;2023-11-22T13:22:16;24.10;;;13.10;;
34234;SDS011;20500;49.856;20.290;2023-11-22T13:25:22;22.20;;;12.90;;
34234;SDS011;20500;49.856;20.290;2023-11-22T13:28:28;22.40;;;12.10;;
34234;SDS011;20500;49.856;20.290;2023-11-22T13:31:33;24.60;;;14.10;;
34234;SDS011;20500;49.856;20.290;2023-11-22T13:34:39;24.40;;;13.60;;
34234;SDS011;20500;49.856;20.290;2023-11-22T13:37:45;24.70;;;14.60;;
34234;SDS011;20500;49.856;20.290;2023-11-22T13:40:51;27.10;;;15.90;;
34234;SDS011;20500;49.856;20.290;2023-11-22T13:43:57;25.20;;;14.50;;
34234;SDS011;20500;49.856;20.290;2023-11-22T13:47:04;25.40;;;15.40;;
34234;SDS011;20500;49.856;20.290;2023-11-22T13:50:10;28.70;;;14.70;;
34234;SDS011;20500;49.856;20.290;2023-11-22T13:53:18;27.80;;;15.00;;
34234;SDS011;20500;49.856;20.290;2023-11-22T13:56:25;26.30;;;14.40;;
34234;SDS011;20500;49.856;20.290;2023-11-22T13:59:31;25.10;;;14.30;;
34234;SDS011;20500;49.856;20.290;2023-11-22T14:02:37;26.90;;;14.70;;
34234;SDS011;20500;49.856;20.290;2023-11-22T14:05:44;24.80;;;14.80;;
34234;SDS011;20500;49.856;20.290;2023-11-22T14:11:56;26.10;;;15.40;;
34234;SDS011;20500;49.856;20.290;2023-11-22T14:15:02;31.20;;;15.20;;
34234;SDS011;20500;49.856;20.290;2023-11-22T14:18:08;29.50;;;15.30;;
34234;SDS011;20500;49.856;20.290;2023-11-22T14:21:14;29.90;;;17.90;;
34234;SDS011;20500;49.856;20.290;2023-11-22T14:24:20;27.10;;;17.30;;
34234;SDS011;20500;49.856;20.290;2023-11-22T14:27:25;27.70;;;16.50;;
34234;SDS011;20500;49.856;20.290;2023-11-22T14:30:32;27.10;;;16.40;;
34234;SDS011;20500;49.856;20.290;2023-11-22T14:33:40;27.40;;;16.60;;
34234;SDS011;20500;49.856;20.290;2023-11-22T14:36:45;30.30;;;17.80;;
34234;SDS011;20500;49.856;20.290;2023-11-22T14:39:52;28.90;;;16.60;;
34234;SDS011;20500;49.856;20.290;2023-11-22T14:42:58;26.70;;;16.00;;
34234;SDS011;20500;49.856;20.290;2023-11-22T14:46:06;30.40;;;16.80;;
34234;SDS011;20500;49.856;20.290;2023-11-22T14:49:11;21.80;;;13.90;;
34234;SDS011;20500;49.856;20.290;2023-11-22T14:52:18;27.40;;;16.50;;
34234;SDS011;20500;49.856;20.290;2023-11-22T14:55:24;28.70;;;16.20;;
34234;SDS011;20500;49.856;20.290;2023-11-22T14:58:29;30.90;;;19.00;;
34234;SDS011;20500;49.856;20.290;2023-11-22T15:01:37;28.30;;;17.00;;
34234;SDS011;20500;49.856;20.290;2023-11-22T15:04:45;27.70;;;16.60;;
34234;SDS011;20500;49.856;20.290;2023-11-22T15:07:50;25.30;;;15.40;;
34234;SDS011;20500;49.856;20.290;2023-11-22T15:10:58;32.30;;;17.20;;
34234;SDS011;20500;49.856;20.290;2023-11-22T15:14:04;30.40;;;16.90;;
34234;SDS011;20500;49.856;20.290;2023-11-22T15:17:10;30.40;;;18.30;;
34234;SDS011;20500;49.856;20.290;2023-11-22T15:20:18;26.10;;;15.90;;
34234;SDS011;20500;49.856;20.290;2023-11-22T15:26:29;26.30;;;16.20;;
34234;SDS011;20500;49.856;20.290;2023-11-22T15:29:35;25.50;;;15.40;;
34234;SDS011;20500;49.856;20.290;2023-11-22T15:32:41;26.60;;;15.60;;
34234;SDS011;20500;49.856;20.290;2023-11-22T15:35:48;29.90;;;16.40;;
34234;SDS011;20500;49.856;20.290;2023-11-22T15:38:54;27.70;;;16.30;;
34234;SDS011;20500;49.856;20.290;2023-11-22T15:41:59;29.80;;;16.80;;
34234;SDS011;20500;49.856;20.290;2023-11-22T15:45:07;30.50;;;17.80;;
34234;SDS011;20500;49.856;20.290;2023-11-22T15:48:13;29.40;;;17.20;;
34234;SDS011;20500;49.856;20.290;2023-11-22T15:51:19;27.90;;;17.20;;
34234;SDS011;20500;49.856;20.290;2023-11-22T15:54:25;28.70;;;18.50;;
34234;SDS011;20500;49.856;20.290;2023-11-22T15:57:31;38.90;;;23.40;;
34234;SDS011;20500;49.856;20.290;2023-11-22T16:00:37;28.40;;;18.10;;
34234;SDS011;20500;49.856;20.290;2023-11-22T16:03:42;35.50;;;19.90;;
34234;SDS011;20500;49.856;20.290;2023-11-22T16:06:48;28.50;;;17.50;;
34234;SDS011;20500;49.856;20.290;2023-11-22T16:09:54;24.50;;;15.20;;
34234;SDS011;20500;49.856;20.290;2023-11-22T16:13:00;36.00;;;19.30;;
34234;SDS011;20500;49.856;20.290;2023-11-22T16:16:06;35.60;;;19.40;;
34234;SDS011;20500;49.856;20.290;2023-11-22T16:19:14;34.30;;;17.40;;
34234;SDS011;20500;49.856;20.290;2023-11-22T16:22:20;31.00;;;17.00;;
34234;SDS011;20500;49.856;20.290;2023-11-22T16:25:26;22.10;;;12.90;;
34234;SDS011;20500;49.856;20.290;2023-11-22T16:28:32;22.10;;;13.40;;
34234;SDS011;20500;49.856;20.290;2023-11-22T16:31:39;44.00;;;27.80;;
34234;SDS011;20500;49.856;20.290;2023-11-22T16:34:45;23.80;;;11.90;;
34234;SDS011;20500;49.856;20.290;2023-11-22T16:37:51;19.60;;;10.20;;
34234;SDS011;20500;49.856;20.290;2023-11-22T16:40:57;22.30;;;14.70;;
34234;SDS011;20500;49.856;20.290;2023-11-22T16:44:03;18.50;;;11.00;;
34234;SDS011;20500;49.856;20.290;2023-11-22T16:47:09;17.20;;;9.60;;
34234;SDS011;20500;49.856;20.290;2023-11-22T16:50:18;22.20;;;13.40;;
34234;SDS011;20500;49.856;20.290;2023-11-22T16:53:24;26.30;;;15.90;;
34234;SDS011;20500;49.856;20.290;2023-11-22T16:56:30;27.30;;;16.50;;
34234;SDS011;20500;49.856;20.290;2023-11-22T16:59:37;24.90;;;14.60;;
34234;SDS011;20500;49.856;20.290;2023-11-22T17:02:43;28.80;;;15.40;;
34234;SDS011;20500;49.856;20.290;2023-11-22T17:05:51;29.90;;;15.70;;
34234;SDS011;20500;49.856;20.290;2023-11-22T17:08:57;24.90;;;14.30;;
34234;SDS011;20500;49.856;20.290;2023-11-22T17:12:03;25.10;;;13.40;;
34234;SDS011;20500;49.856;20.290;2023-11-22T17:15:10;23.30;;;12.30;;
34234;SDS011;20500;49.856;20.290;2023-11-22T17:18:18;22.40;;;11.40;;
34234;SDS011;20500;49.856;20.290;2023-11-22T17:21:24;20.60;;;12.50;;
34234;SDS011;20500;49.856;20.290;2023-11-22T17:27:35;17.70;;;10.30;;
34234;SDS011;20500;49.856;20.290;2023-11-22T17:30:54;17.60;;;9.90;;
34234;SDS011;20500;49.856;20.290;2023-11-22T17:34:01;19.30;;;12.10;;
34234;SDS011;20500;49.856;20.290;2023-11-22T17:37:07;20.50;;;12.60;;
34234;SDS011;20500;49.856;20.290;2023-11-22T17:40:14;23.90;;;14.70;;
34234;SDS011;20500;49.856;20.290;2023-11-22T17:43:20;23.80;;;14.60;;
34234;SDS011;20500;49.856;20.290;2023-11-22T17:46:26;23.20;;;13.30;;
34234;SDS011;20500;49.856;20.290;2023-11-22T17:49:34;29.50;;;19.20;;
34234;SDS011;20500;49.856;20.290;2023-11-22T17:52:40;20.90;;;12.90;;
34234;SDS011;20500;49.856;20.290;2023-11-22T17:55:46;19.20;;;11.00;;
34234;SDS011;20500;49.856;20.290;2023-11-22T17:58:52;22.40;;;12.70;;
34234;SDS011;20500;49.856;20.290;2023-11-22T18:01:59;24.90;;;13.80;;
34234;SDS011;20500;49.856;20.290;2023-11-22T18:05:06;24.90;;;13.20;;
34234;SDS011;20500;49.856;20.290;2023-11-22T18:08:13;23.20;;;12.10;;
34234;SDS011;20500;49.856;20.290;2023-11-22T18:11:21;22.70;;;13.50;;
34234;SDS011;20500;49.856;20.290;2023-11-22T18:14:28;25.90;;;14.20;;
34234;SDS011;20500;49.856;20.290;2023-11-22T18:17:39;27.70;;;15.00;;
34234;SDS011;20500;49.856;20.290;2023-11-22T18:20:45;24.70;;;14.30;;
34234;SDS011;20500;49.856;20.290;2023-11-22T18:23:51;27.10;;;14.30;;
34234;SDS011;20500;49.856;20.290;2023-11-22T18:26:58;24.40;;;14.20;;
34234;SDS011;20500;49.856;20.290;2023-11-22T18:33:10;28.00;;;15.20;;
34234;SDS011;20500;49.856;20.290;2023-11-22T18:36:16;28.80;;;14.60;;
34234;SDS011;20500;49.856;20.290;2023-11-22T18:39:24;24.70;;;14.10;;
34234;SDS011;20500;49.856;20.290;2023-11-22T18:42:30;28.20;;;15.90;;
34234;SDS011;20500;49.856;20.290;2023-11-22T18:45:39;30.10;;;17.00;;
34234;SDS011;20500;49.856;20.290;2023-11-22T18:48:48;32.40;;;18.20;;
34234;SDS011;20500;49.856;20.290;2023-11-22T18:51:54;25.00;;;14.90;;
34234;SDS011;20500;49.856;20.290;2023-11-22T18:55:00;27.50;;;16.20;;
34234;SDS011;20500;49.856;20.290;2023-11-22T18:58:05;24.20;;;14.10;;